sensor_id;sensor_type;location;lat;lon;timestamp;P1;durP1;ratioP1;P2;durP2;ratioP2
3074;SDS011;1548;51.716;8.748;2022-07-06T00:01:40;17.77;;;6.70;;
3074;SDS011;1548;51.716;8.748;2022-07-06T00:04:06;212.57;;;200.47;;
3074;SDS011;1548;51.716;8.748;2022-07-06T00:06:32;119.30;;;113.53;;
3074;SDS011;1548;51.716;8.748;2022-07-06T00:08:59;242.53;;;230.93;;
3074;SDS011;1548;51.716;8.748;2022-07-06T00:11:25;199.40;;;189.83;;
3074;SDS011;1548;51.716;8.748;2022-07-06T00:13:51;9.33;;;2.50;;
3074;SDS011;1548;51.716;8.748;2022-07-06T00:16:17;6.90;;;2.37;;
3074;SDS011;1548;51.716;8.748;2022-07-06T00:18:43;7.93;;;2.67;;
3074;SDS011;1548;51.716;8.748;2022-07-06T00:21:08;25.10;;;22.50;;
3074;SDS011;1548;51.716;8.748;2022-07-06T00:23:34;386.90;;;368.43;;
3074;SDS011;1548;51.716;8.748;2022-07-06T00:26:00;11.67;;;6.63;;
3074;SDS011;1548;51.716;8.748;2022-07-06T00:28:25;258.93;;;246.53;;
3074;SDS011;1548;51.716;8.748;2022-07-06T00:30:52;461.20;;;329.60;;
3074;SDS011;1548;51.716;8.748;2022-07-06T00:33:17;633.20;;;451.27;;
3074;SDS011;1548;51.716;8.748;2022-07-06T00:35:43;191.97;;;180.40;;
3074;SDS011;1548;51.716;8.748;2022-07-06T00:38:09;132.83;;;104.47;;
3074;SDS011;1548;51.716;8.748;2022-07-06T00:40:34;41.20;;;16.73;;
3074;SDS011;1548;51.716;8.748;2022-07-06T00:43:00;472.30;;;449.77;;
3074;SDS011;1548;51.716;8.748;2022-07-06T00:45:25;10.60;;;3.00;;
3074;SDS011;1548;51.716;8.748;2022-07-06T00:47:51;66.40;;;63.20;;
3074;SDS011;1548;51.716;8.748;2022-07-06T00:50:19;8.03;;;3.07;;
3074;SDS011;1548;51.716;8.748;2022-07-06T00:52:49;7.33;;;3.17;;
3074;SDS011;1548;51.716;8.748;2022-07-06T00:55:17;6.53;;;3.00;;
3074;SDS011;1548;51.716;8.748;2022-07-06T00:57:45;119.50;;;113.77;;
3074;SDS011;1548;51.716;8.748;2022-07-06T01:00:12;13.10;;;3.10;;
3074;SDS011;1548;51.716;8.748;2022-07-06T01:02:39;5.20;;;2.90;;
3074;SDS011;1548;51.716;8.748;2022-07-06T01:05:06;8.83;;;3.03;;
3074;SDS011;1548;51.716;8.748;2022-07-06T01:07:33;7.63;;;4.07;;
3074;SDS011;1548;51.716;8.748;2022-07-06T01:09:59;12.00;;;3.13;;
3074;SDS011;1548;51.716;8.748;2022-07-06T01:12:26;7.10;;;3.37;;
3074;SDS011;1548;51.716;8.748;2022-07-06T01:14:52;9.73;;;3.43;;
3074;SDS011;1548;51.716;8.748;2022-07-06T01:17:18;11.93;;;3.00;;
3074;SDS011;1548;51.716;8.748;2022-07-06T01:19:44;10.33;;;3.30;;
3074;SDS011;1548;51.716;8.748;2022-07-06T01:22:10;5.00;;;2.63;;
3074;SDS011;1548;51.716;8.748;2022-07-06T01:24:36;8.20;;;3.57;;
3074;SDS011;1548;51.716;8.748;2022-07-06T01:27:15;7.50;;;3.40;;
3074;SDS011;1548;51.716;8.748;2022-07-06T01:29:40;7.40;;;3.37;;
3074;SDS011;1548;51.716;8.748;2022-07-06T01:32:06;8.80;;;4.10;;
3074;SDS011;1548;51.716;8.748;2022-07-06T01:34:32;8.00;;;3.50;;
3074;SDS011;1548;51.716;8.748;2022-07-06T01:36:57;6.27;;;3.40;;
3074;SDS011;1548;51.716;8.748;2022-07-06T01:39:23;7.07;;;3.43;;
3074;SDS011;1548;51.716;8.748;2022-07-06T01:41:49;7.73;;;3.20;;
3074;SDS011;1548;51.716;8.748;2022-07-06T01:44:14;6.43;;;3.13;;
3074;SDS011;1548;51.716;8.748;2022-07-06T01:46:40;6.27;;;3.40;;
3074;SDS011;1548;51.716;8.748;2022-07-06T01:49:05;8.23;;;3.50;;
3074;SDS011;1548;51.716;8.748;2022-07-06T01:51:32;17.67;;;5.00;;
3074;SDS011;1548;51.716;8.748;2022-07-06T01:53:57;10.83;;;3.80;;
3074;SDS011;1548;51.716;8.748;2022-07-06T01:56:23;6.30;;;3.30;;
3074;SDS011;1548;51.716;8.748;2022-07-06T01:58:48;8.10;;;3.83;;
3074;SDS011;1548;51.716;8.748;2022-07-06T02:01:15;6.43;;;3.53;;
3074;SDS011;1548;51.716;8.748;2022-07-06T02:03:43;9.07;;;4.17;;
3074;SDS011;1548;51.716;8.748;2022-07-06T02:06:09;16.83;;;4.30;;
3074;SDS011;1548;51.716;8.748;2022-07-06T02:08:38;9.17;;;4.10;;
3074;SDS011;1548;51.716;8.748;2022-07-06T02:11:06;10.50;;;3.73;;
3074;SDS011;1548;51.716;8.748;2022-07-06T02:13:33;10.10;;;4.10;;
3074;SDS011;1548;51.716;8.748;2022-07-06T02:16:00;8.10;;;4.20;;
3074;SDS011;1548;51.716;8.748;2022-07-06T02:18:26;6.93;;;3.50;;
3074;SDS011;1548;51.716;8.748;2022-07-06T02:20:52;11.43;;;3.73;;
3074;SDS011;1548;51.716;8.748;2022-07-06T02:23:18;6.33;;;3.20;;
3074;SDS011;1548;51.716;8.748;2022-07-06T02:25:43;9.13;;;3.83;;
3074;SDS011;1548;51.716;8.748;2022-07-06T02:28:09;7.70;;;3.57;;
3074;SDS011;1548;51.716;8.748;2022-07-06T02:30:35;11.90;;;5.30;;
3074;SDS011;1548;51.716;8.748;2022-07-06T02:33:01;8.23;;;3.93;;
3074;SDS011;1548;51.716;8.748;2022-07-06T02:35:26;7.40;;;4.07;;
3074;SDS011;1548;51.716;8.748;2022-07-06T02:37:52;6.17;;;3.60;;
3074;SDS011;1548;51.716;8.748;2022-07-06T02:40:17;6.70;;;3.23;;
3074;SDS011;1548;51.716;8.748;2022-07-06T02:42:43;12.40;;;4.17;;
3074;SDS011;1548;51.716;8.748;2022-07-06T02:45:09;6.90;;;3.60;;
3074;SDS011;1548;51.716;8.748;2022-07-06T02:47:35;11.23;;;4.27;;
3074;SDS011;1548;51.716;8.748;2022-07-06T02:50:02;10.50;;;4.90;;
3074;SDS011;1548;51.716;8.748;2022-07-06T02:52:28;8.30;;;4.10;;
3074;SDS011;1548;51.716;8.748;2022-07-06T02:54:53;9.30;;;4.23;;
3074;SDS011;1548;51.716;8.748;2022-07-06T02:57:19;6.57;;;3.93;;
3074;SDS011;1548;51.716;8.748;2022-07-06T02:59:45;18.10;;;4.17;;
3074;SDS011;1548;51.716;8.748;2022-07-06T03:02:11;9.03;;;3.80;;
3074;SDS011;1548;51.716;8.748;2022-07-06T03:04:36;11.53;;;4.40;;
3074;SDS011;1548;51.716;8.748;2022-07-06T03:07:02;9.03;;;3.90;;
3074;SDS011;1548;51.716;8.748;2022-07-06T03:09:28;6.13;;;3.30;;
3074;SDS011;1548;51.716;8.748;2022-07-06T03:11:54;8.23;;;4.10;;
3074;SDS011;1548;51.716;8.748;2022-07-06T03:14:19;13.00;;;4.47;;
3074;SDS011;1548;51.716;8.748;2022-07-06T03:16:45;10.43;;;3.93;;
3074;SDS011;1548;51.716;8.748;2022-07-06T03:19:11;8.73;;;4.03;;
3074;SDS011;1548;51.716;8.748;2022-07-06T03:21:36;8.73;;;3.80;;
3074;SDS011;1548;51.716;8.748;2022-07-06T03:24:02;212.23;;;143.60;;
3074;SDS011;1548;51.716;8.748;2022-07-06T03:26:28;32.90;;;27.07;;
3074;SDS011;1548;51.716;8.748;2022-07-06T03:28:54;12.93;;;3.63;;
3074;SDS011;1548;51.716;8.748;2022-07-06T03:31:20;9.13;;;4.00;;
3074;SDS011;1548;51.716;8.748;2022-07-06T03:33:45;14.20;;;8.77;;
3074;SDS011;1548;51.716;8.748;2022-07-06T03:36:11;245.07;;;229.27;;
3074;SDS011;1548;51.716;8.748;2022-07-06T03:38:37;46.87;;;28.70;;
3074;SDS011;1548;51.716;8.748;2022-07-06T03:41:03;11.20;;;5.77;;
3074;SDS011;1548;51.716;8.748;2022-07-06T03:43:28;15.77;;;4.10;;
3074;SDS011;1548;51.716;8.748;2022-07-06T03:45:55;107.30;;;102.13;;
3074;SDS011;1548;51.716;8.748;2022-07-06T03:48:20;75.63;;;55.80;;
3074;SDS011;1548;51.716;8.748;2022-07-06T03:50:46;38.93;;;35.27;;
3074;SDS011;1548;51.716;8.748;2022-07-06T03:53:11;50.50;;;40.80;;
3074;SDS011;1548;51.716;8.748;2022-07-06T03:55:37;29.27;;;24.47;;
3074;SDS011;1548;51.716;8.748;2022-07-06T03:58:03;11.90;;;4.77;;
3074;SDS011;1548;51.716;8.748;2022-07-06T04:00:28;6.17;;;4.00;;
3074;SDS011;1548;51.716;8.748;2022-07-06T04:02:54;9.13;;;4.70;;
3074;SDS011;1548;51.716;8.748;2022-07-06T04:05:19;249.57;;;206.87;;
3074;SDS011;1548;51.716;8.748;2022-07-06T04:07:46;373.10;;;221.30;;
3074;SDS011;1548;51.716;8.748;2022-07-06T04:10:13;346.50;;;275.37;;
3074;SDS011;1548;51.716;8.748;2022-07-06T04:12:40;621.33;;;318.60;;
3074;SDS011;1548;51.716;8.748;2022-07-06T04:15:09;616.87;;;305.23;;
3074;SDS011;1548;51.716;8.748;2022-07-06T04:17:36;586.57;;;239.50;;
3074;SDS011;1548;51.716;8.748;2022-07-06T04:20:18;669.10;;;389.37;;
3074;SDS011;1548;51.716;8.748;2022-07-06T04:22:45;612.07;;;264.33;;
3074;SDS011;1548;51.716;8.748;2022-07-06T04:25:10;510.07;;;205.53;;
3074;SDS011;1548;51.716;8.748;2022-07-06T04:27:37;128.00;;;121.87;;
3074;SDS011;1548;51.716;8.748;2022-07-06T04:30:03;324.13;;;267.43;;
3074;SDS011;1548;51.716;8.748;2022-07-06T04:32:29;244.13;;;223.33;;
3074;SDS011;1548;51.716;8.748;2022-07-06T04:34:55;476.80;;;386.63;;
3074;SDS011;1548;51.716;8.748;2022-07-06T04:37:21;339.63;;;291.07;;
3074;SDS011;1548;51.716;8.748;2022-07-06T04:39:48;61.13;;;43.80;;
3074;SDS011;1548;51.716;8.748;2022-07-06T04:42:14;655.57;;;302.13;;
3074;SDS011;1548;51.716;8.748;2022-07-06T04:44:40;640.13;;;261.83;;
3074;SDS011;1548;51.716;8.748;2022-07-06T04:47:05;587.13;;;410.43;;
3074;SDS011;1548;51.716;8.748;2022-07-06T04:49:31;625.60;;;244.17;;
3074;SDS011;1548;51.716;8.748;2022-07-06T04:51:57;543.97;;;261.37;;
3074;SDS011;1548;51.716;8.748;2022-07-06T04:54:22;653.03;;;285.87;;
3074;SDS011;1548;51.716;8.748;2022-07-06T04:56:48;682.43;;;382.67;;
3074;SDS011;1548;51.716;8.748;2022-07-06T04:59:14;636.40;;;260.37;;
3074;SDS011;1548;51.716;8.748;2022-07-06T05:01:40;605.00;;;211.27;;
3074;SDS011;1548;51.716;8.748;2022-07-06T05:04:06;637.03;;;251.97;;
3074;SDS011;1548;51.716;8.748;2022-07-06T05:06:32;674.20;;;326.77;;
3074;SDS011;1548;51.716;8.748;2022-07-06T05:08:58;654.47;;;264.80;;
3074;SDS011;1548;51.716;8.748;2022-07-06T05:11:24;670.47;;;325.07;;
3074;SDS011;1548;51.716;8.748;2022-07-06T05:13:51;451.77;;;232.33;;
3074;SDS011;1548;51.716;8.748;2022-07-06T05:16:16;669.70;;;337.00;;
3074;SDS011;1548;51.716;8.748;2022-07-06T05:18:42;99.20;;;89.27;;
3074;SDS011;1548;51.716;8.748;2022-07-06T05:21:08;123.53;;;117.60;;
3074;SDS011;1548;51.716;8.748;2022-07-06T05:23:33;34.73;;;32.33;;
3074;SDS011;1548;51.716;8.748;2022-07-06T05:25:59;142.07;;;135.23;;
3074;SDS011;1548;51.716;8.748;2022-07-06T05:28:25;31.90;;;8.27;;
3074;SDS011;1548;51.716;8.748;2022-07-06T05:30:50;11.73;;;5.33;;
3074;SDS011;1548;51.716;8.748;2022-07-06T05:33:16;41.40;;;39.37;;
3074;SDS011;1548;51.716;8.748;2022-07-06T05:35:42;41.33;;;12.10;;
3074;SDS011;1548;51.716;8.748;2022-07-06T05:38:08;58.90;;;18.23;;
3074;SDS011;1548;51.716;8.748;2022-07-06T05:40:33;26.83;;;17.47;;
3074;SDS011;1548;51.716;8.748;2022-07-06T05:42:59;629.50;;;299.60;;
3074;SDS011;1548;51.716;8.748;2022-07-06T05:45:25;72.33;;;38.37;;
3074;SDS011;1548;51.716;8.748;2022-07-06T05:47:50;9.10;;;3.10;;
3074;SDS011;1548;51.716;8.748;2022-07-06T05:50:34;10.57;;;3.10;;
3074;SDS011;1548;51.716;8.748;2022-07-06T05:53:01;8.53;;;2.90;;
3074;SDS011;1548;51.716;8.748;2022-07-06T05:55:27;7.30;;;3.13;;
3074;SDS011;1548;51.716;8.748;2022-07-06T05:57:56;19.67;;;5.13;;
3074;SDS011;1548;51.716;8.748;2022-07-06T06:00:22;22.77;;;6.47;;
3074;SDS011;1548;51.716;8.748;2022-07-06T06:02:49;16.57;;;10.97;;
3074;SDS011;1548;51.716;8.748;2022-07-06T06:05:15;8.13;;;4.53;;
3074;SDS011;1548;51.716;8.748;2022-07-06T06:07:42;11.23;;;5.83;;
3074;SDS011;1548;51.716;8.748;2022-07-06T06:10:12;86.30;;;82.13;;
3074;SDS011;1548;51.716;8.748;2022-07-06T06:12:38;27.07;;;24.80;;
3074;SDS011;1548;51.716;8.748;2022-07-06T06:15:05;14.83;;;5.27;;
3074;SDS011;1548;51.716;8.748;2022-07-06T06:17:32;19.27;;;16.10;;
3074;SDS011;1548;51.716;8.748;2022-07-06T06:19:58;38.50;;;36.63;;
3074;SDS011;1548;51.716;8.748;2022-07-06T06:22:24;126.33;;;120.27;;
3074;SDS011;1548;51.716;8.748;2022-07-06T06:24:50;10.93;;;4.37;;
3074;SDS011;1548;51.716;8.748;2022-07-06T06:27:16;16.00;;;5.30;;
3074;SDS011;1548;51.716;8.748;2022-07-06T06:29:42;47.60;;;43.80;;
3074;SDS011;1548;51.716;8.748;2022-07-06T06:32:09;6.60;;;3.30;;
3074;SDS011;1548;51.716;8.748;2022-07-06T06:34:35;10.97;;;3.27;;
3074;SDS011;1548;51.716;8.748;2022-07-06T06:37:01;185.10;;;176.23;;
3074;SDS011;1548;51.716;8.748;2022-07-06T06:39:27;253.47;;;241.37;;
3074;SDS011;1548;51.716;8.748;2022-07-06T06:41:52;495.03;;;471.43;;
3074;SDS011;1548;51.716;8.748;2022-07-06T06:44:18;589.47;;;561.37;;
3074;SDS011;1548;51.716;8.748;2022-07-06T06:46:44;523.47;;;498.50;;
3074;SDS011;1548;51.716;8.748;2022-07-06T06:49:10;583.67;;;555.83;;
3074;SDS011;1548;51.716;8.748;2022-07-06T06:51:35;36.90;;;29.90;;
3074;SDS011;1548;51.716;8.748;2022-07-06T06:54:03;11.03;;;5.67;;
3074;SDS011;1548;51.716;8.748;2022-07-06T06:56:29;698.33;;;469.37;;
3074;SDS011;1548;51.716;8.748;2022-07-06T06:58:55;47.50;;;45.20;;
3074;SDS011;1548;51.716;8.748;2022-07-06T07:01:20;27.37;;;14.53;;
3074;SDS011;1548;51.716;8.748;2022-07-06T07:03:46;605.10;;;576.23;;
3074;SDS011;1548;51.716;8.748;2022-07-06T07:06:12;475.30;;;452.63;;
3074;SDS011;1548;51.716;8.748;2022-07-06T07:08:37;545.70;;;519.63;;
3074;SDS011;1548;51.716;8.748;2022-07-06T07:11:03;109.60;;;104.33;;
3074;SDS011;1548;51.716;8.748;2022-07-06T07:13:30;23.80;;;15.57;;
3074;SDS011;1548;51.716;8.748;2022-07-06T07:15:56;61.57;;;58.60;;
3074;SDS011;1548;51.716;8.748;2022-07-06T07:18:21;11.97;;;5.23;;
3074;SDS011;1548;51.716;8.748;2022-07-06T07:20:47;8.40;;;3.63;;
3074;SDS011;1548;51.716;8.748;2022-07-06T07:23:13;15.90;;;3.50;;
3074;SDS011;1548;51.716;8.748;2022-07-06T07:25:39;10.30;;;4.13;;
3074;SDS011;1548;51.716;8.748;2022-07-06T07:28:05;17.03;;;4.10;;
3074;SDS011;1548;51.716;8.748;2022-07-06T07:30:31;9.20;;;3.50;;
3074;SDS011;1548;51.716;8.748;2022-07-06T07:32:56;11.73;;;5.03;;
3074;SDS011;1548;51.716;8.748;2022-07-06T07:35:22;13.00;;;4.10;;
3074;SDS011;1548;51.716;8.748;2022-07-06T07:37:48;442.10;;;421.03;;
3074;SDS011;1548;51.716;8.748;2022-07-06T07:40:14;650.10;;;584.20;;
3074;SDS011;1548;51.716;8.748;2022-07-06T07:42:41;715.13;;;548.77;;
3074;SDS011;1548;51.716;8.748;2022-07-06T07:45:08;737.50;;;583.87;;
3074;SDS011;1548;51.716;8.748;2022-07-06T07:47:34;679.80;;;647.40;;
3074;SDS011;1548;51.716;8.748;2022-07-06T07:49:59;693.97;;;565.30;;
3074;SDS011;1548;51.716;8.748;2022-07-06T07:52:25;621.70;;;592.03;;
3074;SDS011;1548;51.716;8.748;2022-07-06T07:54:51;669.43;;;434.10;;
3074;SDS011;1548;51.716;8.748;2022-07-06T07:57:17;690.47;;;522.00;;
3074;SDS011;1548;51.716;8.748;2022-07-06T07:59:42;681.07;;;647.67;;
3074;SDS011;1548;51.716;8.748;2022-07-06T08:02:08;672.47;;;603.27;;
3074;SDS011;1548;51.716;8.748;2022-07-06T08:04:34;475.33;;;452.63;;
3074;SDS011;1548;51.716;8.748;2022-07-06T08:06:59;581.27;;;553.57;;
3074;SDS011;1548;51.716;8.748;2022-07-06T08:09:26;474.50;;;451.87;;
3074;SDS011;1548;51.716;8.748;2022-07-06T08:11:51;177.07;;;168.60;;
3074;SDS011;1548;51.716;8.748;2022-07-06T08:14:17;681.50;;;646.00;;
3074;SDS011;1548;51.716;8.748;2022-07-06T08:16:43;618.90;;;588.80;;
3074;SDS011;1548;51.716;8.748;2022-07-06T08:19:09;594.00;;;565.67;;
3074;SDS011;1548;51.716;8.748;2022-07-06T08:21:38;688.60;;;655.77;;
3074;SDS011;1548;51.716;8.748;2022-07-06T08:24:04;473.47;;;450.87;;
3074;SDS011;1548;51.716;8.748;2022-07-06T08:26:30;495.53;;;471.90;;
3074;SDS011;1548;51.716;8.748;2022-07-06T08:28:56;76.33;;;67.37;;
3074;SDS011;1548;51.716;8.748;2022-07-06T08:31:23;746.07;;;612.73;;
3074;SDS011;1548;51.716;8.748;2022-07-06T08:33:49;755.03;;;632.80;;
3074;SDS011;1548;51.716;8.748;2022-07-06T08:36:18;749.07;;;604.20;;
3074;SDS011;1548;51.716;8.748;2022-07-06T08:38:44;701.33;;;617.20;;
3074;SDS011;1548;51.716;8.748;2022-07-06T08:41:10;712.80;;;572.33;;
3074;SDS011;1548;51.716;8.748;2022-07-06T08:43:38;679.60;;;611.93;;
3074;SDS011;1548;51.716;8.748;2022-07-06T08:46:04;668.40;;;636.53;;
3074;SDS011;1548;51.716;8.748;2022-07-06T08:48:32;714.10;;;649.83;;
3074;SDS011;1548;51.716;8.748;2022-07-06T08:51:01;714.97;;;636.67;;
3074;SDS011;1548;51.716;8.748;2022-07-06T08:53:28;738.57;;;601.00;;
3074;SDS011;1548;51.716;8.748;2022-07-06T08:55:54;739.40;;;655.93;;
3074;SDS011;1548;51.716;8.748;2022-07-06T08:58:25;717.57;;;658.23;;
3074;SDS011;1548;51.716;8.748;2022-07-06T09:00:54;720.20;;;632.63;;
3074;SDS011;1548;51.716;8.748;2022-07-06T09:03:22;730.67;;;577.67;;
3074;SDS011;1548;51.716;8.748;2022-07-06T09:05:50;749.07;;;611.80;;
3074;SDS011;1548;51.716;8.748;2022-07-06T09:08:18;717.17;;;675.97;;
3074;SDS011;1548;51.716;8.748;2022-07-06T09:10:44;527.80;;;502.60;;
3074;SDS011;1548;51.716;8.748;2022-07-06T09:13:10;153.53;;;146.17;;
3074;SDS011;1548;51.716;8.748;2022-07-06T09:15:36;439.67;;;418.70;;
3074;SDS011;1548;51.716;8.748;2022-07-06T09:18:06;659.23;;;515.30;;
3074;SDS011;1548;51.716;8.748;2022-07-06T09:20:32;57.40;;;22.47;;
3074;SDS011;1548;51.716;8.748;2022-07-06T09:23:00;82.70;;;78.70;;
3074;SDS011;1548;51.716;8.748;2022-07-06T09:25:27;8.10;;;2.47;;
3074;SDS011;1548;51.716;8.748;2022-07-06T09:27:53;642.60;;;611.97;;
3074;SDS011;1548;51.716;8.748;2022-07-06T09:30:20;736.50;;;565.47;;
3074;SDS011;1548;51.716;8.748;2022-07-06T09:32:48;251.70;;;239.67;;
3074;SDS011;1548;51.716;8.748;2022-07-06T09:35:22;696.77;;;584.27;;
3074;SDS011;1548;51.716;8.748;2022-07-06T09:38:00;739.63;;;594.13;;
3074;SDS011;1548;51.716;8.748;2022-07-06T09:40:29;543.97;;;194.70;;
3074;SDS011;1548;51.716;8.748;2022-07-06T09:43:07;763.63;;;652.63;;
3074;SDS011;1548;51.716;8.748;2022-07-06T09:45:50;656.23;;;624.93;;
3074;SDS011;1548;51.716;8.748;2022-07-06T09:48:18;7.13;;;2.00;;
3074;SDS011;1548;51.716;8.748;2022-07-06T09:50:51;12.00;;;2.97;;
3074;SDS011;1548;51.716;8.748;2022-07-06T09:53:23;6.20;;;1.90;;
3074;SDS011;1548;51.716;8.748;2022-07-06T09:55:50;7.47;;;2.43;;
3074;SDS011;1548;51.716;8.748;2022-07-06T09:58:18;6.03;;;4.47;;
3074;SDS011;1548;51.716;8.748;2022-07-06T10:00:45;42.37;;;40.30;;
3074;SDS011;1548;51.716;8.748;2022-07-06T10:03:12;429.67;;;409.13;;
3074;SDS011;1548;51.716;8.748;2022-07-06T10:05:40;148.47;;;141.33;;
3074;SDS011;1548;51.716;8.748;2022-07-06T10:08:08;599.97;;;571.37;;
3074;SDS011;1548;51.716;8.748;2022-07-06T10:10:35;56.90;;;54.13;;
3074;SDS011;1548;51.716;8.748;2022-07-06T10:13:02;251.90;;;239.87;;
3074;SDS011;1548;51.716;8.748;2022-07-06T10:15:31;27.63;;;26.27;;
3074;SDS011;1548;51.716;8.748;2022-07-06T10:17:58;371.67;;;353.90;;
3074;SDS011;1548;51.716;8.748;2022-07-06T10:20:25;12.80;;;4.50;;
3074;SDS011;1548;51.716;8.748;2022-07-06T10:22:53;11.43;;;3.57;;
3074;SDS011;1548;51.716;8.748;2022-07-06T10:25:23;9.13;;;2.33;;
3074;SDS011;1548;51.716;8.748;2022-07-06T10:27:50;3.60;;;1.97;;
3074;SDS011;1548;51.716;8.748;2022-07-06T10:30:17;98.13;;;93.43;;
3074;SDS011;1548;51.716;8.748;2022-07-06T10:32:44;34.60;;;32.40;;
3074;SDS011;1548;51.716;8.748;2022-07-06T10:35:14;482.37;;;459.33;;
3074;SDS011;1548;51.716;8.748;2022-07-06T10:37:41;737.50;;;702.33;;
3074;SDS011;1548;51.716;8.748;2022-07-06T10:40:07;733.87;;;568.80;;
3074;SDS011;1548;51.716;8.748;2022-07-06T10:42:56;716.30;;;511.63;;
3074;SDS011;1548;51.716;8.748;2022-07-06T10:50:36;619.50;;;412.50;;
3074;SDS011;1548;51.716;8.748;2022-07-06T10:53:02;421.63;;;123.43;;
3074;SDS011;1548;51.716;8.748;2022-07-06T10:55:35;386.63;;;250.33;;
3074;SDS011;1548;51.716;8.748;2022-07-06T10:58:03;451.23;;;78.70;;
3074;SDS011;1548;51.716;8.748;2022-07-06T11:00:47;485.50;;;93.63;;
3074;SDS011;1548;51.716;8.748;2022-07-06T11:06:01;631.20;;;397.70;;
3074;SDS011;1548;51.716;8.748;2022-07-06T11:11:15;498.17;;;108.07;;
3074;SDS011;1548;51.716;8.748;2022-07-06T11:13:47;497.33;;;139.57;;
3074;SDS011;1548;51.716;8.748;2022-07-06T11:16:15;497.53;;;109.70;;
3074;SDS011;1548;51.716;8.748;2022-07-06T11:18:46;501.80;;;98.37;;
3074;SDS011;1548;51.716;8.748;2022-07-06T11:21:15;495.27;;;100.37;;
3074;SDS011;1548;51.716;8.748;2022-07-06T11:23:46;497.10;;;120.17;;
3074;SDS011;1548;51.716;8.748;2022-07-06T11:26:13;498.50;;;102.70;;
3074;SDS011;1548;51.716;8.748;2022-07-06T11:28:39;497.97;;;130.83;;
3074;SDS011;1548;51.716;8.748;2022-07-06T11:31:07;476.23;;;103.10;;
3074;SDS011;1548;51.716;8.748;2022-07-06T11:33:35;491.20;;;83.73;;
3074;SDS011;1548;51.716;8.748;2022-07-06T11:36:19;503.43;;;142.37;;
3074;SDS011;1548;51.716;8.748;2022-07-06T11:38:47;491.33;;;128.50;;
3074;SDS011;1548;51.716;8.748;2022-07-06T11:41:14;450.53;;;143.47;;
3074;SDS011;1548;51.716;8.748;2022-07-06T11:43:44;488.40;;;128.73;;
3074;SDS011;1548;51.716;8.748;2022-07-06T11:48:52;601.13;;;294.03;;
3074;SDS011;1548;51.716;8.748;2022-07-06T11:51:20;712.53;;;518.30;;
3074;SDS011;1548;51.716;8.748;2022-07-06T11:53:47;406.17;;;261.83;;
3074;SDS011;1548;51.716;8.748;2022-07-06T11:56:26;520.30;;;177.83;;
3074;SDS011;1548;51.716;8.748;2022-07-06T11:58:58;455.80;;;173.63;;
3074;SDS011;1548;51.716;8.748;2022-07-06T12:01:26;431.97;;;171.07;;
3074;SDS011;1548;51.716;8.748;2022-07-06T12:03:53;380.60;;;176.87;;
3074;SDS011;1548;51.716;8.748;2022-07-06T12:06:23;434.80;;;163.57;;
3074;SDS011;1548;51.716;8.748;2022-07-06T12:08:55;498.37;;;282.87;;
3074;SDS011;1548;51.716;8.748;2022-07-06T12:13:49;666.60;;;470.73;;
3074;SDS011;1548;51.716;8.748;2022-07-06T12:16:15;441.97;;;86.80;;
3074;SDS011;1548;51.716;8.748;2022-07-06T12:18:42;506.90;;;110.23;;
3074;SDS011;1548;51.716;8.748;2022-07-06T12:21:16;533.53;;;132.83;;
3074;SDS011;1548;51.716;8.748;2022-07-06T12:23:44;495.97;;;98.03;;
3074;SDS011;1548;51.716;8.748;2022-07-06T12:26:15;438.30;;;143.83;;
3074;SDS011;1548;51.716;8.748;2022-07-06T12:28:43;616.33;;;420.73;;
3074;SDS011;1548;51.716;8.748;2022-07-06T12:31:10;543.47;;;172.10;;
3074;SDS011;1548;51.716;8.748;2022-07-06T12:33:37;462.70;;;168.30;;
3074;SDS011;1548;51.716;8.748;2022-07-06T12:36:13;475.53;;;170.30;;
3074;SDS011;1548;51.716;8.748;2022-07-06T12:38:45;471.60;;;166.07;;
3074;SDS011;1548;51.716;8.748;2022-07-06T12:44:12;478.37;;;167.73;;
3074;SDS011;1548;51.716;8.748;2022-07-06T12:46:38;457.23;;;172.83;;
3074;SDS011;1548;51.716;8.748;2022-07-06T12:49:21;420.23;;;181.37;;
3074;SDS011;1548;51.716;8.748;2022-07-06T12:54:17;450.10;;;167.93;;
3074;SDS011;1548;51.716;8.748;2022-07-06T12:57:04;452.93;;;172.43;;
3074;SDS011;1548;51.716;8.748;2022-07-06T12:59:44;471.53;;;168.57;;
3074;SDS011;1548;51.716;8.748;2022-07-06T13:02:22;475.27;;;171.00;;
3074;SDS011;1548;51.716;8.748;2022-07-06T13:04:55;446.07;;;175.50;;
3074;SDS011;1548;51.716;8.748;2022-07-06T13:07:29;704.40;;;525.23;;
3074;SDS011;1548;51.716;8.748;2022-07-06T13:09:57;396.67;;;175.67;;
3074;SDS011;1548;51.716;8.748;2022-07-06T13:12:23;478.00;;;162.77;;
3074;SDS011;1548;51.716;8.748;2022-07-06T13:14:50;464.23;;;171.93;;
3074;SDS011;1548;51.716;8.748;2022-07-06T13:17:17;118.73;;;42.27;;
3074;SDS011;1548;51.716;8.748;2022-07-06T13:19:43;429.50;;;175.23;;
3074;SDS011;1548;51.716;8.748;2022-07-06T13:22:09;458.33;;;168.90;;
3074;SDS011;1548;51.716;8.748;2022-07-06T13:24:35;476.03;;;173.30;;
3074;SDS011;1548;51.716;8.748;2022-07-06T13:27:01;478.43;;;148.27;;
3074;SDS011;1548;51.716;8.748;2022-07-06T13:29:26;500.20;;;156.73;;
3074;SDS011;1548;51.716;8.748;2022-07-06T13:31:52;500.77;;;160.07;;
3074;SDS011;1548;51.716;8.748;2022-07-06T13:34:18;488.77;;;159.53;;
3074;SDS011;1548;51.716;8.748;2022-07-06T13:36:45;472.80;;;166.03;;
3074;SDS011;1548;51.716;8.748;2022-07-06T13:39:12;498.67;;;160.33;;
3074;SDS011;1548;51.716;8.748;2022-07-06T13:41:39;505.80;;;152.53;;
3074;SDS011;1548;51.716;8.748;2022-07-06T13:44:05;467.37;;;168.40;;
3074;SDS011;1548;51.716;8.748;2022-07-06T13:46:32;505.07;;;161.53;;
3074;SDS011;1548;51.716;8.748;2022-07-06T13:49:02;488.03;;;160.23;;
3074;SDS011;1548;51.716;8.748;2022-07-06T13:51:29;535.83;;;231.13;;
3074;SDS011;1548;51.716;8.748;2022-07-06T13:53:57;541.47;;;195.77;;
3074;SDS011;1548;51.716;8.748;2022-07-06T13:56:24;459.53;;;172.53;;
3074;SDS011;1548;51.716;8.748;2022-07-06T13:58:50;437.40;;;176.67;;
3074;SDS011;1548;51.716;8.748;2022-07-06T14:01:16;433.03;;;175.63;;
3074;SDS011;1548;51.716;8.748;2022-07-06T14:03:42;424.60;;;177.57;;
3074;SDS011;1548;51.716;8.748;2022-07-06T14:06:08;442.63;;;173.97;;
3074;SDS011;1548;51.716;8.748;2022-07-06T14:08:34;476.97;;;164.17;;
3074;SDS011;1548;51.716;8.748;2022-07-06T14:11:01;731.83;;;637.10;;
3074;SDS011;1548;51.716;8.748;2022-07-06T14:13:27;757.90;;;646.93;;
3074;SDS011;1548;51.716;8.748;2022-07-06T14:15:57;444.10;;;341.00;;
3074;SDS011;1548;51.716;8.748;2022-07-06T14:18:23;467.37;;;174.47;;
3074;SDS011;1548;51.716;8.748;2022-07-06T14:20:49;816.50;;;766.47;;
3074;SDS011;1548;51.716;8.748;2022-07-06T14:23:16;791.87;;;729.60;;
3074;SDS011;1548;51.716;8.748;2022-07-06T14:25:44;775.83;;;699.83;;
3074;SDS011;1548;51.716;8.748;2022-07-06T14:28:11;506.83;;;139.00;;
3074;SDS011;1548;51.716;8.748;2022-07-06T14:30:41;503.07;;;141.37;;
3074;SDS011;1548;51.716;8.748;2022-07-06T14:33:09;513.73;;;114.07;;
3074;SDS011;1548;51.716;8.748;2022-07-06T14:35:46;510.80;;;130.17;;
3074;SDS011;1548;51.716;8.748;2022-07-06T14:38:14;514.33;;;113.67;;
3074;SDS011;1548;51.716;8.748;2022-07-06T14:40:40;434.27;;;149.53;;
3074;SDS011;1548;51.716;8.748;2022-07-06T14:43:06;510.00;;;129.90;;
3074;SDS011;1548;51.716;8.748;2022-07-06T14:45:31;487.77;;;121.00;;
3074;SDS011;1548;51.716;8.748;2022-07-06T14:47:57;508.93;;;137.23;;
3074;SDS011;1548;51.716;8.748;2022-07-06T14:50:23;509.73;;;114.90;;
3074;SDS011;1548;51.716;8.748;2022-07-06T14:52:49;540.63;;;215.30;;
3074;SDS011;1548;51.716;8.748;2022-07-06T14:55:15;521.90;;;242.43;;
3074;SDS011;1548;51.716;8.748;2022-07-06T14:57:41;450.10;;;172.93;;
3074;SDS011;1548;51.716;8.748;2022-07-06T15:00:07;446.37;;;176.80;;